Terminal Aerodrome Forecast
Issued by NWS Sioux Falls, SD

Home | Current Version | Previous Version | Text Only | Print | Product List | Glossary Off
Versions: 1 2 3 4 5 6 7 8 9 10 11 12 13 14 15 16 17

000
FTUS43 KFSD 291133
TAFFSD
TAF
KFSD 291133Z 2912/3012 33018G27KT P6SM OVC018
     FM291400 33015G23KT P6SM OVC020
     FM292200 33015KT P6SM SCT020
     FM300000 34008KT P6SM SCT200=

USA.gov is the U.S. government's official web portal to all federal, state and local government web resources and services.